LFMD/CEQ METAR and TAF weather

Enter ICAO airport designator
Station Type Date Time Source
LFMD METAR 2021/05/12 04:00 UTC NOAA

LFMD 120400Z AUTO VRB03KT 9999 FEW022 10/07 Q1010 NOSIG


Station Type Date Time Source
LFMD Decoded METAR 2021/05/12 04:00 UTC NOAA

Cannes, France (LFMD) 43-33N 006-57E 9M
May 12, 2021 - 12:00 AM EDT / 2021.05.12 0400 UTC
Wind: Variable at 3 MPH (3 KT):0
Visibility: greater than 7 mile(s):0
Sky conditions: mostly clear
Temperature: 50 F (10 C)
Dew Point: 44 F (7 C)
Relative Humidity: 81%
Pressure (altimeter): 29.83 in. Hg (1010 hPa)
ob: LFMD 120400Z AUTO VRB03KT 9999 FEW022 10/07 Q1010 NOSIG
cycle: 4

Station Type Date Time Source
LFMD TAF 2021/05/12 03:26 UTC NOAA

TAF LFMD 120200Z 1203/1303 VRB03KT CAVOK
BECMG 1210/1212 24010KT
TEMPO 1212/1220 24020G30KT

Example: see airport list